Time;durP1;ratioP1;P1;durP2;ratioP2;P2;SDS_P1;SDS_P2;PMS_P1;PMS_P2;Temp;Humidity;BMP_temperature;BMP_pressure;BME280_temperature;BME280_humidity;BME280_pressure;Samples;Min_cycle;Max_cycle;Signal;HPM_P1;HPM_P2
2023/06/07 00:00:45;;;;;;;5.07;2.10;;;19.10;99.90;;;;;;5092623;28;20400;-76
2023/06/07 00:03:11;;;;;;;4.20;2.33;;;19.10;99.90;;;;;;5092692;28;20020;-76
2023/06/07 00:05:38;;;;;;;5.35;2.42;;;19.10;99.90;;;;;;5092921;28;20513;-77
2023/06/07 00:08:05;;;;;;;5.30;2.40;;;19.00;99.90;;;;;;5093295;28;20376;-75
2023/06/07 00:10:33;;;;;;;6.25;2.38;;;19.10;99.90;;;;;;5096534;28;20115;-75
2023/06/07 00:12:59;;;;;;;5.47;2.65;;;19.10;99.90;;;;;;5096489;28;20065;-74
2023/06/07 00:15:25;;;;;;;7.10;2.50;;;19.00;99.90;;;;;;5096739;28;20058;-77
2023/06/07 00:17:50;;;;;;;4.38;2.60;;;19.10;99.90;;;;;;5096543;28;20028;-76
2023/06/07 00:20:16;;;;;;;6.38;2.92;;;19.00;99.90;;;;;;5096292;28;20106;-76
2023/06/07 00:22:42;;;;;;;7.18;2.70;;;19.10;99.90;;;;;;5096490;28;20388;-75
2023/06/07 00:25:08;;;;;;;5.40;2.47;;;19.10;99.90;;;;;;5096249;28;20039;-76
2023/06/07 00:27:34;;;;;;;6.63;2.50;;;19.00;99.90;;;;;;5096246;28;20024;-76
2023/06/07 00:30:02;;;;;;;9.18;2.53;;;19.00;99.90;;;;;;5096083;28;20360;-75
2023/06/07 00:32:28;;;;;;;5.65;2.50;;;19.00;99.90;;;;;;5096346;28;20036;-75
2023/06/07 00:34:54;;;;;;;3.47;2.50;;;19.00;99.90;;;;;;5096162;28;20229;-74
2023/06/07 00:37:19;;;;;;;5.07;2.63;;;19.00;99.90;;;;;;5096099;28;20146;-76
2023/06/07 00:39:45;;;;;;;5.00;2.13;;;19.00;99.90;;;;;;5095922;28;20069;-76
2023/06/07 00:42:11;;;;;;;15.00;3.75;;;19.00;99.90;;;;;;5096178;28;20557;-75
2023/06/07 00:44:37;;;;;;;6.88;2.33;;;19.00;99.90;;;;;;5096080;28;20423;-75
2023/06/07 00:47:02;;;;;;;3.47;1.80;;;18.90;99.90;;;;;;5095971;28;20028;-75
2023/06/07 00:49:29;;;;;;;4.07;1.65;;;18.90;99.90;;;;;;5095896;28;20494;-76
2023/06/07 00:51:55;;;;;;;4.25;1.70;;;18.90;99.90;;;;;;5095837;28;20034;-75
2023/06/07 00:54:22;;;;;;;1.58;1.23;;;18.90;99.90;;;;;;5094832;28;20055;-76
2023/06/07 00:56:51;;;;;;;1.83;1.30;;;18.90;99.90;;;;;;5095760;28;20027;-76
2023/06/07 00:59:18;;;;;;;4.78;1.90;;;18.90;99.90;;;;;;5093253;28;20028;-77
2023/06/07 01:01:47;;;;;;;4.43;1.90;;;18.90;99.90;;;;;;5093026;28;20419;-75
2023/06/07 01:04:12;;;;;;;4.05;1.67;;;18.90;99.90;;;;;;5093531;28;20104;-76
2023/06/07 01:06:38;;;;;;;3.10;1.42;;;18.90;99.90;;;;;;5095365;28;20467;-74
2023/06/07 01:09:13;;;;;;;3.08;1.50;;;18.90;99.90;;;;;;5095443;28;20040;-75
2023/06/07 01:11:46;;;;;;;5.45;1.65;;;18.90;99.90;;;;;;5095522;28;20107;-76
2023/06/07 01:14:14;;;;;;;3.38;1.52;;;18.80;99.90;;;;;;5095103;28;20510;-75
2023/06/07 01:16:40;;;;;;;6.57;1.50;;;18.80;99.80;;;;;;5095298;28;20379;-76
2023/06/07 01:19:11;;;;;;;5.47;1.70;;;18.80;99.90;;;;;;5076928;28;20073;-75
2023/06/07 01:21:38;;;;;;;2.05;1.70;;;18.80;99.90;;;;;;5094413;28;20028;-76
2023/06/07 01:24:04;;;;;;;2.33;1.48;;;18.80;99.90;;;;;;5095296;28;20024;-75
2023/06/07 01:26:30;;;;;;;4.07;1.50;;;18.70;99.80;;;;;;5095232;28;20145;-75
2023/06/07 01:29:05;;;;;;;5.25;1.38;;;18.70;99.80;;;;;;5094815;28;20051;-74
2023/06/07 01:31:35;;;;;;;8.43;1.35;;;18.70;99.90;;;;;;5094905;28;20039;-76
2023/06/07 01:34:02;;;;;;;3.67;1.40;;;18.70;99.90;;;;;;5094841;28;20042;-75
2023/06/07 01:36:30;;;;;;;5.05;1.45;;;18.70;99.90;;;;;;5094852;28;20031;-76
2023/06/07 01:38:59;;;;;;;6.40;1.80;;;18.70;99.90;;;;;;5094689;28;20024;-76
2023/06/07 01:41:27;;;;;;;9.95;1.52;;;18.70;99.90;;;;;;5094786;28;20055;-75
2023/06/07 01:43:53;;;;;;;5.30;1.90;;;18.70;99.90;;;;;;5094660;28;20472;-75
2023/06/07 01:46:19;;;;;;;1.98;1.58;;;18.70;99.90;;;;;;5094970;28;20028;-76
2023/06/07 01:48:45;;;;;;;3.75;1.65;;;18.70;99.90;;;;;;5076617;28;20024;-75
2023/06/07 01:51:11;;;;;;;2.55;1.60;;;18.70;99.90;;;;;;5094897;28;20050;-74
2023/06/07 01:53:37;;;;;;;6.00;1.50;;;18.70;99.90;;;;;;5094767;28;20039;-74
2023/06/07 01:56:18;;;;;;;3.28;1.50;;;18.70;99.90;;;;;;5094501;28;20034;-75
2023/06/07 01:59:21;;;;;;;7.60;1.83;;;18.70;99.90;;;;;;5094564;28;20109;-74
2023/06/07 02:01:56;;;;;;;6.80;1.77;;;18.70;99.90;;;;;;5094790;28;20045;-75
2023/06/07 02:04:25;;;;;;;4.03;1.88;;;18.70;99.90;;;;;;5094678;28;20035;-75
2023/06/07 02:06:54;;;;;;;3.55;1.95;;;18.70;99.90;;;;;;5095119;28;20024;-74
2023/06/07 02:09:23;;;;;;;7.35;1.75;;;18.70;99.90;;;;;;5094267;28;20463;-76
2023/06/07 02:11:50;;;;;;;6.43;2.05;;;18.60;99.90;;;;;;5094218;28;20016;-74
2023/06/07 02:14:17;;;;;;;5.45;2.00;;;18.60;99.90;;;;;;5094186;28;20054;-75
2023/06/07 02:16:43;;;;;;;8.15;2.00;;;18.60;99.90;;;;;;5094252;28;20019;-74
2023/06/07 02:19:09;;;;;;;6.45;2.13;;;18.60;99.90;;;;;;5094253;28;20020;-75
2023/06/07 02:21:36;;;;;;;7.50;1.80;;;18.60;99.90;;;;;;5094148;28;20052;-74
2023/06/07 02:24:06;;;;;;;8.93;2.00;;;18.60;99.90;;;;;;5093748;28;20222;-75
2023/06/07 02:26:32;;;;;;;10.93;2.10;;;18.60;99.90;;;;;;5094216;28;20020;-75
2023/06/07 02:28:58;;;;;;;6.93;2.28;;;18.50;99.70;;;;;;5094089;28;20031;-75
2023/06/07 02:31:24;;;;;;;4.75;2.03;;;18.50;99.80;;;;;;5094314;28;20020;-76
2023/06/07 02:33:50;;;;;;;5.15;1.98;;;18.50;99.80;;;;;;5093595;28;20101;-75
2023/06/07 02:36:20;;;;;;;4.10;2.15;;;18.40;99.70;;;;;;5093861;28;20495;-76
2023/06/07 02:38:46;;;;;;;10.05;2.08;;;18.40;99.60;;;;;;5093827;28;20027;-74
2023/06/07 02:41:12;;;;;;;4.72;2.08;;;18.40;99.70;;;;;;5094097;28;20028;-76
2023/06/07 02:43:38;;;;;;;4.53;2.05;;;18.30;99.60;;;;;;5093910;28;20388;-75
2023/06/07 02:46:03;;;;;;;6.65;2.33;;;18.30;99.70;;;;;;5093685;28;20042;-75
2023/06/07 02:48:29;;;;;;;10.02;2.50;;;18.30;99.80;;;;;;5093761;28;20456;-74
2023/06/07 02:50:55;;;;;;;5.82;2.45;;;18.30;99.80;;;;;;5093335;28;20032;-74
2023/06/07 02:53:20;;;;;;;5.72;2.60;;;18.30;99.90;;;;;;5093558;28;20380;-74
2023/06/07 02:55:46;;;;;;;7.82;2.47;;;18.30;99.90;;;;;;5093581;28;20032;-75
2023/06/07 02:58:13;;;;;;;7.53;2.35;;;18.20;99.90;;;;;;5093504;28;20027;-74
2023/06/07 03:00:39;;;;;;;7.20;2.70;;;18.20;99.90;;;;;;5093406;28;20026;-76
2023/06/07 03:03:05;;;;;;;7.50;2.70;;;18.20;99.90;;;;;;5093459;28;20016;-75
2023/06/07 03:05:31;;;;;;;7.78;3.10;;;18.20;99.90;;;;;;5093201;28;20174;-76
2023/06/07 03:07:59;;;;;;;6.75;3.10;;;18.20;99.90;;;;;;5093301;28;20020;-75
2023/06/07 03:10:25;;;;;;;5.90;2.85;;;18.20;99.90;;;;;;5092986;28;20085;-75
2023/06/07 03:12:51;;;;;;;5.88;3.05;;;18.20;99.90;;;;;;5093383;28;20046;-75
2023/06/07 03:15:17;;;;;;;6.57;2.80;;;18.20;99.90;;;;;;5092669;28;20032;-76
2023/06/07 03:17:43;;;;;;;9.65;3.08;;;18.20;99.90;;;;;;5092873;28;20368;-74
2023/06/07 03:20:09;;;;;;;8.18;3.60;;;18.10;99.90;;;;;;5092948;28;20027;-76
2023/06/07 03:22:36;;;;;;;8.77;3.40;;;18.10;99.90;;;;;;5093050;28;20024;-76
2023/06/07 03:25:02;;;;;;;9.57;3.25;;;18.10;99.90;;;;;;5093181;28;20027;-76
2023/06/07 03:27:29;;;;;;;10.20;3.40;;;18.10;99.90;;;;;;5093088;28;20149;-77
2023/06/07 03:29:55;;;;;;;7.63;3.50;;;18.10;99.90;;;;;;5092866;28;20121;-74
2023/06/07 03:32:20;;;;;;;8.35;3.50;;;18.10;99.90;;;;;;5092807;28;20423;-75
2023/06/07 03:34:46;;;;;;;5.55;3.58;;;18.00;99.90;;;;;;5085621;28;20048;-77
2023/06/07 03:37:12;;;;;;;4.50;3.60;;;18.00;99.90;;;;;;5113234;28;20016;-75
2023/06/07 03:39:37;;;;;;;7.72;3.22;;;18.00;99.90;;;;;;5113292;28;20035;-76
2023/06/07 03:42:03;;;;;;;6.55;3.78;;;18.00;99.90;;;;;;5113164;28;20016;-75
2023/06/07 03:44:29;;;;;;;3.47;2.97;;;18.00;99.90;;;;;;5112642;28;20163;-75
2023/06/07 03:46:54;;;;;;;12.00;3.58;;;17.90;99.90;;;;;;5113528;28;20019;-74
2023/06/07 03:49:20;;;;;;;11.27;3.40;;;17.90;99.90;;;;;;5113273;28;20020;-76
2023/06/07 03:51:46;;;;;;;11.60;3.17;;;17.90;99.90;;;;;;5113328;28;20019;-76
2023/06/07 03:54:13;;;;;;;6.40;3.30;;;17.90;99.90;;;;;;5113217;28;20028;-76
2023/06/07 03:56:39;;;;;;;5.97;3.20;;;17.90;99.90;;;;;;5094938;28;20528;-76
2023/06/07 03:59:06;;;;;;;9.27;3.42;;;17.90;99.90;;;;;;5113316;28;20030;-75
2023/06/07 04:01:32;;;;;;;7.93;3.47;;;17.90;99.90;;;;;;5113281;28;20019;-76
2023/06/07 04:03:57;;;;;;;7.47;2.80;;;17.90;99.90;;;;;;5112957;28;20023;-76
2023/06/07 04:06:28;;;;;;;6.20;3.17;;;17.80;99.90;;;;;;5113283;28;20098;-76
2023/06/07 04:08:56;;;;;;;6.97;3.30;;;17.80;99.90;;;;;;5113207;28;20089;-75
2023/06/07 04:11:23;;;;;;;6.63;3.17;;;17.80;99.90;;;;;;5113212;28;20027;-75
2023/06/07 04:13:48;;;;;;;6.22;2.83;;;17.80;99.90;;;;;;5112944;28;20414;-73
2023/06/07 04:16:14;;;;;;;4.88;3.05;;;17.90;99.90;;;;;;5113563;28;20028;-74
2023/06/07 04:18:40;;;;;;;6.00;2.85;;;17.90;99.90;;;;;;5094706;28;20030;-75
2023/06/07 04:21:05;;;;;;;6.75;3.28;;;17.90;99.90;;;;;;5112814;28;20020;-76
2023/06/07 04:23:32;;;;;;;7.28;2.88;;;17.90;99.90;;;;;;5112899;28;20035;-75
2023/06/07 04:25:58;;;;;;;4.90;2.80;;;18.00;99.90;;;;;;5113090;28;20037;-76
2023/06/07 04:28:24;;;;;;;3.03;2.22;;;18.00;99.90;;;;;;5112979;28;20028;-75
2023/06/07 04:30:51;;;;;;;5.55;2.72;;;18.00;99.90;;;;;;5112650;28;20028;-75
2023/06/07 04:33:19;;;;;;;6.43;2.20;;;17.90;99.90;;;;;;5112901;28;20031;-75
2023/06/07 04:35:48;;;;;;;3.55;1.98;;;18.00;99.90;;;;;;5112773;28;20063;-76
2023/06/07 04:38:15;;;;;;;3.22;1.85;;;18.00;99.90;;;;;;5112839;28;20520;-76
2023/06/07 04:40:42;;;;;;;3.88;1.80;;;18.10;99.90;;;;;;5112580;28;20072;-75
2023/06/07 04:43:10;;;;;;;5.25;1.60;;;18.00;99.90;;;;;;5112754;28;20024;-76
2023/06/07 04:45:40;;;;;;;4.22;1.48;;;18.10;99.90;;;;;;5112638;28;20622;-75
2023/06/07 04:48:07;;;;;;;4.15;1.42;;;18.10;99.90;;;;;;5112953;28;20032;-75
2023/06/07 04:50:33;;;;;;;4.97;1.50;;;18.10;99.90;;;;;;5112759;28;20074;-74
2023/06/07 04:53:02;;;;;;;6.97;1.25;;;18.20;99.90;;;;;;5112720;28;20141;-76
2023/06/07 04:55:34;;;;;;;4.82;1.50;;;18.20;99.90;;;;;;5114126;28;20024;-73
2023/06/07 04:58:04;;;;;;;4.55;1.58;;;18.20;99.90;;;;;;5116223;28;20090;-74
2023/06/07 05:00:33;;;;;;;4.95;1.20;;;18.30;99.90;;;;;;5116159;28;20019;-75
2023/06/07 05:03:08;;;;;;;5.45;1.45;;;18.30;99.90;;;;;;5098089;28;20032;-75
2023/06/07 05:05:37;;;;;;;3.13;1.35;;;18.30;99.90;;;;;;5095489;28;20027;-71
2023/06/07 05:08:05;;;;;;;2.78;1.33;;;18.40;99.90;;;;;;5095607;28;20024;-72
2023/06/07 05:10:30;;;;;;;3.03;1.48;;;18.40;99.90;;;;;;5095300;28;20028;-72
2023/06/07 05:12:56;;;;;;;4.47;1.33;;;18.40;99.90;;;;;;5095636;28;20017;-72
2023/06/07 05:15:23;;;;;;;9.50;1.83;;;18.40;99.90;;;;;;5095187;28;20103;-72
2023/06/07 05:17:49;;;;;;;2.40;1.63;;;18.50;99.90;;;;;;5095723;28;20379;-72
2023/06/07 05:20:15;;;;;;;2.80;1.58;;;18.50;99.90;;;;;;5095238;28;20020;-72
2023/06/07 05:22:42;;;;;;;3.85;1.48;;;18.50;99.90;;;;;;5096209;28;20035;-73
2023/06/07 05:25:09;;;;;;;3.95;1.27;;;18.60;99.90;;;;;;5095418;28;20024;-72
2023/06/07 05:27:36;;;;;;;4.35;1.52;;;18.60;99.90;;;;;;5093911;28;20032;-72
2023/06/07 05:30:04;;;;;;;2.30;1.70;;;18.60;99.90;;;;;;5095045;28;20036;-72
2023/06/07 05:32:31;;;;;;;2.47;1.40;;;18.70;99.80;;;;;;5094992;28;20536;-73
2023/06/07 05:34:57;;;;;;;5.05;1.40;;;18.70;99.70;;;;;;5095031;28;20067;-72
2023/06/07 05:37:27;;;;;;;1.80;1.40;;;18.70;99.60;;;;;;5095201;28;20028;-72
2023/06/07 05:39:53;;;;;;;2.70;1.30;;;18.80;99.40;;;;;;5094803;28;20036;-72
2023/06/07 05:42:19;;;;;;;3.95;1.50;;;18.80;99.20;;;;;;5094829;28;20632;-72
2023/06/07 05:44:46;;;;;;;4.65;1.50;;;18.80;99.10;;;;;;5094651;28;20136;-72
2023/06/07 05:47:12;;;;;;;4.03;1.30;;;18.90;99.00;;;;;;5094672;28;20028;-72
2023/06/07 05:49:38;;;;;;;2.28;1.38;;;18.90;99.00;;;;;;5094505;28;20052;-72
2023/06/07 05:52:04;;;;;;;3.35;1.27;;;18.90;99.00;;;;;;5094548;28;20097;-71
2023/06/07 05:54:29;;;;;;;1.40;1.23;;;19.00;99.10;;;;;;5094696;28;20020;-72
2023/06/07 05:56:55;;;;;;;3.00;1.17;;;19.00;99.00;;;;;;5094490;28;20028;-73
2023/06/07 05:59:21;;;;;;;2.20;1.15;;;19.00;99.10;;;;;;5094417;28;20394;-72
2023/06/07 06:01:47;;;;;;;6.00;1.92;;;19.00;99.00;;;;;;5094260;28;20106;-71
2023/06/07 06:04:13;;;;;;;4.95;1.40;;;19.10;99.10;;;;;;5094346;28;20107;-73
2023/06/07 06:06:41;;;;;;;2.70;1.30;;;19.10;99.10;;;;;;5094109;28;20095;-72
2023/06/07 06:09:06;;;;;;;2.03;1.38;;;19.20;99.10;;;;;;5094302;28;20032;-71
2023/06/07 06:11:32;;;;;;;1.65;1.30;;;19.20;99.00;;;;;;5094227;28;20020;-72
2023/06/07 06:13:58;;;;;;;2.35;1.35;;;19.20;98.90;;;;;;5094047;28;20024;-70
2023/06/07 06:16:23;;;;;;;2.38;1.40;;;19.20;98.90;;;;;;5093945;28;20021;-76
2023/06/07 06:18:49;;;;;;;2.63;1.30;;;19.20;98.80;;;;;;5093921;28;20047;-75
2023/06/07 06:21:14;;;;;;;4.07;1.40;;;19.20;98.70;;;;;;5093524;28;20030;-74
2023/06/07 06:23:40;;;;;;;2.65;1.48;;;19.30;98.60;;;;;;5094049;28;20059;-75
2023/06/07 06:26:06;;;;;;;67.47;4.35;;;19.30;98.50;;;;;;5093950;28;20100;-73
2023/06/07 06:28:31;;;;;;;2.45;1.40;;;19.30;98.50;;;;;;5093843;28;20107;-73
2023/06/07 06:30:57;;;;;;;6.60;1.60;;;19.30;98.50;;;;;;5093596;28;20111;-73
2023/06/07 06:33:23;;;;;;;4.03;1.33;;;19.40;98.50;;;;;;5093474;28;20024;-73
2023/06/07 06:35:48;;;;;;;1.92;1.35;;;19.40;98.50;;;;;;5093585;28;20076;-75
2023/06/07 06:38:14;;;;;;;4.85;1.70;;;19.50;98.50;;;;;;5075469;28;20024;-75
2023/06/07 06:40:40;;;;;;;4.53;1.50;;;19.50;98.40;;;;;;5093664;28;20031;-71
2023/06/07 06:43:06;;;;;;;5.47;1.55;;;19.50;98.30;;;;;;5093415;28;20472;-71
2023/06/07 06:45:31;;;;;;;2.50;1.55;;;19.60;98.20;;;;;;5093501;28;20020;-73
2023/06/07 06:47:58;;;;;;;2.95;1.52;;;19.60;98.10;;;;;;5074104;28;20448;-72
2023/06/07 06:50:24;;;;;;;2.42;1.10;;;19.70;98.00;;;;;;5092163;28;20135;-69
2023/06/07 06:52:50;;;;;;;2.15;1.30;;;19.70;98.00;;;;;;5092268;28;20507;-73
2023/06/07 06:55:17;;;;;;;2.50;1.58;;;19.80;97.90;;;;;;5092297;28;20498;-72
2023/06/07 06:57:43;;;;;;;2.75;1.42;;;19.80;97.80;;;;;;5074103;28;20480;-73
2023/06/07 07:00:09;;;;;;;3.05;1.27;;;19.90;97.80;;;;;;5092210;28;20026;-73
2023/06/07 07:02:35;;;;;;;4.30;1.58;;;19.90;97.80;;;;;;5091831;28;20557;-74
2023/06/07 07:05:03;;;;;;;4.13;1.40;;;20.00;97.70;;;;;;5092148;28;20028;-75
2023/06/07 07:07:29;;;;;;;2.40;1.40;;;20.00;97.70;;;;;;5093153;28;20016;-75
2023/06/07 07:09:55;;;;;;;5.45;1.60;;;20.10;97.60;;;;;;5093478;28;20058;-75
2023/06/07 07:12:23;;;;;;;4.07;1.52;;;20.10;97.50;;;;;;5093294;28;20035;-75
2023/06/07 07:14:49;;;;;;;7.80;1.48;;;20.20;97.40;;;;;;5093517;28;20020;-77
2023/06/07 07:17:15;;;;;;;3.13;1.55;;;20.20;97.40;;;;;;5093005;28;20400;-77
2023/06/07 07:19:41;;;;;;;4.07;1.45;;;20.30;97.30;;;;;;5092898;28;20373;-76
2023/06/07 07:22:07;;;;;;;5.15;1.60;;;20.30;97.20;;;;;;5093207;28;20049;-76
2023/06/07 07:24:32;;;;;;;2.90;1.40;;;20.30;97.20;;;;;;5092758;28;20030;-76
2023/06/07 07:26:58;;;;;;;3.25;2.05;;;20.40;97.20;;;;;;5092629;28;20032;-75
2023/06/07 07:29:24;;;;;;;5.13;1.42;;;20.40;97.30;;;;;;5092579;28;20031;-75
2023/06/07 07:31:50;;;;;;;3.78;1.67;;;20.50;97.30;;;;;;5093045;28;20047;-77
2023/06/07 07:34:16;;;;;;;3.67;1.50;;;20.50;97.40;;;;;;5094091;22;20045;-76
2023/06/07 07:36:43;;;;;;;3.17;1.60;;;20.50;97.00;;;;;;5072942;28;20411;-76
2023/06/07 07:39:15;;;;;;;2.05;1.70;;;20.60;97.00;;;;;;5072827;28;20491;-76
2023/06/07 07:41:41;;;;;;;2.30;1.90;;;20.60;96.70;;;;;;5072793;28;20021;-76
2023/06/07 07:44:07;;;;;;;3.10;1.60;;;20.70;96.60;;;;;;5072940;28;20039;-75
2023/06/07 07:46:32;;;;;;;4.03;1.60;;;20.60;96.60;;;;;;5072822;28;20036;-76
2023/06/07 07:48:58;;;;;;;2.78;1.50;;;20.70;96.70;;;;;;5072784;28;20460;-76
2023/06/07 07:51:24;;;;;;;3.97;1.88;;;20.70;96.70;;;;;;5072662;28;20090;-76
2023/06/07 07:53:53;;;;;;;5.88;1.60;;;20.80;96.80;;;;;;5072404;28;20602;-75
2023/06/07 07:56:21;;;;;;;2.80;1.30;;;20.80;96.80;;;;;;5054549;28;20384;-75
2023/06/07 07:58:48;;;;;;;3.03;1.92;;;20.90;96.90;;;;;;5072586;28;20012;-77
2023/06/07 08:01:16;;;;;;;2.97;2.05;;;20.90;96.90;;;;;;5072272;28;20485;-77
2023/06/07 08:03:42;;;;;;;2.42;1.50;;;21.00;97.00;;;;;;5072268;28;20038;-77
2023/06/07 08:06:07;;;;;;;2.40;1.83;;;21.10;96.80;;;;;;5072727;28;20016;-76
2023/06/07 08:08:33;;;;;;;2.28;1.73;;;21.10;96.70;;;;;;5072745;28;20043;-76
2023/06/07 08:11:00;;;;;;;4.40;1.70;;;21.10;96.40;;;;;;5072534;28;20033;-76
2023/06/07 08:13:26;;;;;;;4.32;1.75;;;21.20;96.20;;;;;;5072937;28;20074;-76
2023/06/07 08:15:51;;;;;;;2.40;1.70;;;21.20;96.00;;;;;;5072469;28;20024;-77
2023/06/07 08:18:17;;;;;;;4.40;2.10;;;21.20;96.10;;;;;;5072479;28;20024;-78
2023/06/07 08:20:44;;;;;;;3.67;1.88;;;21.30;96.20;;;;;;5072496;28;20056;-78
2023/06/07 08:23:09;;;;;;;3.20;1.85;;;21.30;96.10;;;;;;5072682;28;20031;-78
2023/06/07 08:25:35;;;;;;;3.45;1.60;;;21.40;95.90;;;;;;5072393;28;20021;-78
2023/06/07 08:28:02;;;;;;;2.35;1.50;;;21.40;96.00;;;;;;5072146;28;20016;-77
2023/06/07 08:30:28;;;;;;;2.05;1.75;;;21.50;95.50;;;;;;5075223;28;20526;-77
2023/06/07 08:32:54;;;;;;;2.88;1.80;;;21.50;95.70;;;;;;5076007;28;20028;-77
2023/06/07 08:35:20;;;;;;;4.00;1.60;;;21.60;95.90;;;;;;5075873;28;20056;-75
2023/06/07 08:37:45;;;;;;;2.88;1.70;;;21.60;96.00;;;;;;5072483;28;20503;-78
2023/06/07 08:40:16;;;;;;;2.35;1.33;;;21.70;95.50;;;;;;5066012;28;20239;-76
2023/06/07 08:42:42;;;;;;;5.93;1.70;;;21.80;95.40;;;;;;5065424;28;20028;-76
2023/06/07 08:45:08;;;;;;;4.25;1.80;;;21.90;95.00;;;;;;5063674;28;20025;-77
2023/06/07 08:47:36;;;;;;;8.07;3.40;;;21.90;95.30;;;;;;5055398;28;20088;-74
2023/06/07 08:50:02;;;;;;;3.63;1.90;;;22.00;95.20;;;;;;5037512;28;20041;-75
2023/06/07 08:52:31;;;;;;;5.03;1.60;;;22.00;94.90;;;;;;5038062;28;20070;-74
2023/06/07 08:55:02;;;;;;;1.77;1.50;;;22.10;95.00;;;;;;5053558;28;20033;-75
2023/06/07 08:57:29;;;;;;;3.60;1.83;;;22.20;94.30;;;;;;5045428;28;20047;-75
2023/06/07 08:59:56;;;;;;;3.13;1.63;;;22.20;94.00;;;;;;5055637;28;20104;-75
2023/06/07 09:02:24;;;;;;;1.98;1.50;;;22.30;93.30;;;;;;5037530;28;20098;-75
2023/06/07 09:04:51;;;;;;;8.27;2.05;;;22.30;92.80;;;;;;5055585;28;20021;-74
2023/06/07 09:07:17;;;;;;;2.47;1.90;;;22.40;93.20;;;;;;5055402;28;20029;-77
2023/06/07 09:09:43;;;;;;;8.15;1.70;;;22.40;93.80;;;;;;5055351;28;20047;-76
2023/06/07 09:12:10;;;;;;;6.25;2.22;;;22.50;93.50;;;;;;5055373;28;20021;-76
2023/06/07 09:14:37;;;;;;;2.45;1.70;;;22.50;93.40;;;;;;5055267;28;20056;-75
2023/06/07 09:17:03;;;;;;;2.83;1.73;;;22.60;93.30;;;;;;5054686;28;20025;-74
2023/06/07 09:19:39;;;;;;;2.90;1.80;;;22.70;93.30;;;;;;5055097;28;20469;-74
2023/06/07 09:22:06;;;;;;;3.15;1.80;;;22.70;93.10;;;;;;5054993;28;20028;-74
2023/06/07 09:24:33;;;;;;;5.95;1.90;;;22.80;93.10;;;;;;5054969;28;20100;-74
2023/06/07 09:27:01;;;;;;;2.90;1.85;;;22.80;93.00;;;;;;5037572;28;20039;-74
2023/06/07 09:29:29;;;;;;;3.95;1.80;;;22.90;93.10;;;;;;5054905;28;20391;-74
2023/06/07 09:31:59;;;;;;;3.33;1.83;;;22.90;93.10;;;;;;5054852;28;20110;-74
2023/06/07 09:34:26;;;;;;;12.75;1.98;;;23.00;92.80;;;;;;5054552;28;20048;-75
2023/06/07 09:36:59;;;;;;;2.63;1.42;;;23.00;92.60;;;;;;5054848;28;20444;-75
2023/06/07 09:39:29;;;;;;;2.05;1.83;;;23.10;92.50;;;;;;5054834;28;20029;-74
2023/06/07 09:41:56;;;;;;;2.78;1.70;;;23.10;92.70;;;;;;5053981;28;20029;-74
2023/06/07 09:44:23;;;;;;;1.70;1.60;;;23.10;92.50;;;;;;5054893;28;20029;-74
2023/06/07 09:46:50;;;;;;;1.90;1.70;;;23.20;92.30;;;;;;5054730;28;20040;-74
2023/06/07 09:49:28;;;;;;;4.50;1.55;;;23.20;91.80;;;;;;5054437;28;20021;-74
2023/06/07 09:51:55;;;;;;;3.22;1.90;;;23.20;91.60;;;;;;5054350;28;20104;-73
2023/06/07 09:54:36;;;;;;;5.93;1.85;;;23.30;91.70;;;;;;5054812;28;20021;-74
2023/06/07 09:57:08;;;;;;;7.25;1.90;;;23.30;91.80;;;;;;5054789;28;20528;-74
2023/06/07 09:59:38;;;;;;;3.80;1.95;;;23.40;91.70;;;;;;5054294;28;20106;-75
2023/06/07 10:02:24;;;;;;;11.82;2.05;;;23.40;90.60;;;;;;5036523;28;20170;-76
2023/06/07 10:04:52;;;;;;;2.53;1.70;;;23.40;90.70;;;;;;5054750;28;20025;-75
2023/06/07 10:07:22;;;;;;;2.33;1.90;;;23.40;90.60;;;;;;5054406;28;20025;-75
2023/06/07 10:09:52;;;;;;;3.03;2.00;;;23.40;90.70;;;;;;5053665;28;20469;-74
2023/06/07 10:12:21;;;;;;;2.72;2.03;;;23.40;90.60;;;;;;5054112;28;20070;-74
2023/06/07 10:14:47;;;;;;;4.07;2.22;;;23.50;91.00;;;;;;5053758;28;20029;-74
2023/06/07 10:17:15;;;;;;;6.20;2.00;;;23.50;91.30;;;;;;5053663;28;20017;-73
2023/06/07 10:19:42;;;;;;;4.05;2.00;;;23.60;91.60;;;;;;5053513;28;20037;-73
2023/06/07 10:22:16;;;;;;;3.00;1.88;;;23.70;91.70;;;;;;5060784;28;20054;-75
2023/06/07 10:24:48;;;;;;;2.08;1.80;;;23.80;91.60;;;;;;5055623;28;20050;-74
2023/06/07 10:27:17;;;;;;;;;;;23.80;90.80;;;;;;5074311;28;20043;-76
2023/06/07 10:29:53;;;;;;;7.25;2.00;;;23.90;91.00;;;;;;5073548;28;19917;-74
2023/06/07 10:32:28;;;;;;;2.83;1.73;;;23.90;91.10;;;;;;5073525;28;20365;-74
2023/06/07 10:34:55;;;;;;;4.38;2.00;;;24.00;90.50;;;;;;5073420;28;20057;-74
2023/06/07 10:37:21;;;;;;;3.47;1.90;;;24.00;90.40;;;;;;5073546;28;20028;-74
2023/06/07 10:39:47;;;;;;;4.70;1.98;;;24.00;90.50;;;;;;5055297;28;20032;-73
2023/06/07 10:42:14;;;;;;;2.85;2.05;;;24.00;90.50;;;;;;5073404;28;20460;-74
2023/06/07 10:44:39;;;;;;;3.00;1.80;;;24.10;89.20;;;;;;5073303;28;20050;-74
2023/06/07 10:47:29;;;;;;;3.70;1.92;;;24.10;87.70;;;;;;5055390;28;20099;-74
2023/06/07 10:49:54;;;;;;;5.47;1.85;;;24.10;87.50;;;;;;5072714;28;20032;-74
2023/06/07 10:52:21;;;;;;;6.00;2.55;;;24.10;87.10;;;;;;5072356;28;20123;-74
2023/06/07 10:54:47;;;;;;;6.85;2.30;;;24.10;87.00;;;;;;5072738;28;20028;-75
2023/06/07 10:57:13;;;;;;;5.65;2.17;;;24.10;86.50;;;;;;5066530;28;20481;-74
2023/06/07 10:59:40;;;;;;;4.28;1.98;;;24.10;86.90;;;;;;5061270;28;20025;-74
2023/06/07 11:02:27;;;;;;;3.75;1.83;;;24.10;87.40;;;;;;5063028;28;20062;-74
2023/06/07 11:04:57;;;;;;;2.33;2.13;;;24.20;88.20;;;;;;5067341;28;20415;-76
2023/06/07 11:07:28;;;;;;;4.65;1.90;;;24.30;89.40;;;;;;5070218;28;20033;-75
2023/06/07 11:10:16;;;;;;;6.00;2.00;;;24.30;88.00;;;;;;5070135;28;20042;-76
2023/06/07 11:12:45;;;;;;;3.45;2.17;;;24.30;87.70;;;;;;5072319;28;20537;-75
2023/06/07 11:15:17;;;;;;;2.10;1.90;;;24.40;87.90;;;;;;5072760;28;20033;-75
2023/06/07 11:18:00;;;;;;;7.85;2.10;;;24.50;88.30;;;;;;5072977;28;20024;-75
2023/06/07 11:20:37;;;;;;;2.92;2.05;;;24.50;88.50;;;;;;5072904;28;20028;-74
2023/06/07 11:23:28;;;;;;;5.57;1.90;;;24.60;87.60;;;;;;5072874;28;20032;-75
2023/06/07 11:26:09;;;;;;;3.50;1.80;;;24.70;84.80;;;;;;5054865;28;20031;-75
2023/06/07 11:28:37;;;;;;;7.68;2.92;;;24.70;83.70;;;;;;5072531;28;20040;-74
2023/06/07 11:31:08;;;;;;;6.97;1.95;;;24.70;84.10;;;;;;5072206;28;20041;-74
2023/06/07 11:33:34;;;;;;;5.45;1.80;;;24.60;85.50;;;;;;5070035;28;20093;-75
2023/06/07 11:36:01;;;;;;;5.32;2.25;;;24.70;86.90;;;;;;5059480;28;20098;-74
2023/06/07 11:38:27;;;;;;;7.18;2.00;;;24.70;86.60;;;;;;5051475;28;20051;-78
2023/06/07 11:40:53;;;;;;;3.38;2.35;;;24.80;86.90;;;;;;5052253;28;20068;-75
2023/06/07 11:43:27;;;;;;;4.85;2.00;;;24.90;86.90;;;;;;5051498;28;20017;-75
2023/06/07 11:45:57;;;;;;;5.72;2.03;;;25.00;86.90;;;;;;5051537;28;20068;-74
2023/06/07 11:48:27;;;;;;;5.28;1.98;;;25.00;86.40;;;;;;5051824;28;20415;-75
2023/06/07 11:50:53;;;;;;;5.90;2.10;;;25.00;86.10;;;;;;5050974;28;20526;-76
2023/06/07 11:53:19;;;;;;;3.53;2.30;;;25.10;86.00;;;;;;5051740;28;20029;-74
2023/06/07 11:55:46;;;;;;;3.50;2.35;;;25.10;86.30;;;;;;5034748;28;20029;-76
2023/06/07 11:58:11;;;;;;;3.13;2.25;;;25.10;84.90;;;;;;5052008;28;20028;-75
2023/06/07 12:00:37;;;;;;;3.03;2.10;;;25.10;83.60;;;;;;5052637;28;20105;-76
2023/06/07 12:03:05;;;;;;;5.05;2.55;;;25.10;83.20;;;;;;5052309;28;20025;-76
2023/06/07 12:05:31;;;;;;;6.00;2.28;;;25.10;83.40;;;;;;5055584;28;20048;-76
2023/06/07 12:08:03;;;;;;;2.40;2.20;;;25.20;84.10;;;;;;5056719;28;20013;-75
2023/06/07 12:10:29;;;;;;;2.55;1.98;;;25.30;83.90;;;;;;5056742;28;20036;-75
2023/06/07 12:13:10;;;;;;;4.10;2.40;;;25.30;83.70;;;;;;5055977;28;20025;-75
2023/06/07 12:15:53;;;;;;;3.22;1.90;;;25.30;84.60;;;;;;5055715;28;20094;-75
2023/06/07 12:18:20;;;;;;;4.43;2.30;;;25.30;84.80;;;;;;5056075;28;20448;-76
2023/06/07 12:20:47;;;;;;;5.20;2.30;;;25.40;85.00;;;;;;5056401;28;20040;-75
2023/06/07 12:23:14;;;;;;;2.55;2.15;;;25.40;85.10;;;;;;5056353;28;20108;-75
2023/06/07 12:25:42;;;;;;;4.15;2.53;;;25.50;85.10;;;;;;5056304;28;20465;-75
2023/06/07 12:28:14;;;;;;;4.25;2.20;;;25.50;85.30;;;;;;5056138;28;20032;-76
2023/06/07 12:30:41;;;;;;;4.53;2.25;;;25.50;84.10;;;;;;5056137;28;20040;-75
2023/06/07 12:33:15;;;;;;;3.63;2.17;;;25.50;84.30;;;;;;5056202;28;20045;-76
2023/06/07 12:35:46;;;;;;;4.95;2.30;;;25.60;82.30;;;;;;5056119;28;20055;-76
2023/06/07 12:38:13;;;;;;;4.13;2.05;;;25.50;83.00;;;;;;5055960;28;20060;-76
2023/06/07 12:40:39;;;;;;;6.25;1.95;;;25.60;83.00;;;;;;5055898;28;20094;-75
2023/06/07 12:43:05;;;;;;;3.58;2.58;;;25.60;82.10;;;;;;5037903;28;20029;-77
2023/06/07 12:45:30;;;;;;;3.15;2.17;;;25.60;80.60;;;;;;5055895;28;20133;-77
2023/06/07 12:47:56;;;;;;;2.78;2.13;;;25.60;81.40;;;;;;5055916;28;20484;-76